createdAt,value
2023-02-01T00:01:59.541Z,99208.98
2023-02-01T00:04:29.134Z,99204.17
2023-02-01T00:06:58.771Z,99194.17
2023-02-01T00:09:28.466Z,99194.42
2023-02-01T00:11:59.901Z,99186.98
2023-02-01T00:14:29.537Z,99185.89
2023-02-01T00:16:58.667Z,99183.63
2023-02-01T00:19:27.794Z,99189.45
2023-02-01T00:21:56.867Z,99186.48
2023-02-01T00:24:25.849Z,99186.08
2023-02-01T00:26:55.221Z,99188.43
2023-02-01T00:29:24.493Z,99198.17
2023-02-01T00:31:53.875Z,99206.13
2023-02-01T00:34:24.393Z,99229.42
2023-02-01T00:36:53.482Z,99218.79
2023-02-01T00:39:22.338Z,99205.38
2023-02-01T00:41:51.525Z,99206.71
2023-02-01T00:44:21.035Z,99217.08
2023-02-01T00:46:50.692Z,99214.16
2023-02-01T00:49:20.879Z,99211.64
2023-02-01T00:51:50.809Z,99216.58
2023-02-01T00:54:20.591Z,99215.14
2023-02-01T00:56:49.691Z,99222.32
2023-02-01T00:59:20.062Z,99216.11
2023-02-01T01:01:49.658Z,99231.25
2023-02-01T01:04:18.949Z,99295.85
2023-02-01T01:06:48.934Z,99336.13
2023-02-01T01:09:17.939Z,99347.93
2023-02-01T01:11:47.374Z,99346.44
2023-02-01T01:14:16.230Z,99350.48
2023-02-01T01:16:45.864Z,99341.61
2023-02-01T01:19:15.487Z,99343.33
2023-02-01T01:21:44.368Z,99333.14
2023-02-01T01:24:13.258Z,99337.14
2023-02-01T01:26:42.342Z,99342.73
2023-02-01T01:29:11.989Z,99339.59
2023-02-01T01:31:41.012Z,99337.33
2023-02-01T01:34:11.041Z,99334.96
2023-02-01T01:36:39.970Z,99327.05
2023-02-01T01:39:09.643Z,99319.10
2023-02-01T01:41:39.056Z,99321.06
2023-02-01T01:44:52.469Z,99317.58
2023-02-01T01:47:22.554Z,99324.42
2023-02-01T01:49:52.479Z,99332.62
2023-02-01T01:52:21.563Z,99343.63
2023-02-01T01:54:54.691Z,99297.75
2023-02-01T01:57:28.517Z,99278.70
2023-02-01T02:00:02.811Z,99276.02
2023-02-01T02:02:45.938Z,99288.70
2023-02-01T02:05:19.084Z,99293.48
2023-02-01T02:07:50.278Z,99300.23
2023-02-01T02:10:20.286Z,99308.53
2023-02-01T02:12:49.715Z,99304.17
2023-02-01T02:15:20.176Z,99310.02
2023-02-01T02:17:59.311Z,99312.37
2023-02-01T02:20:54.115Z,99299.95
2023-02-01T02:24:02.153Z,99291.30
2023-02-01T02:26:47.853Z,99277.41
2023-02-01T02:30:02.254Z,99272.13
2023-02-01T02:33:01.935Z,99261.23
2023-02-01T02:35:40.941Z,99258.48
2023-02-01T02:38:19.325Z,99257.84
2023-02-01T02:40:58.780Z,99255.70
2023-02-01T02:43:56.184Z,99249.88
2023-02-01T02:46:47.620Z,99248.02
2023-02-01T02:49:24.461Z,99244.75
2023-02-01T02:52:18.802Z,99242.56
2023-02-01T02:54:52.226Z,99242.73
2023-02-01T02:57:45.120Z,99239.77
2023-02-01T03:00:36.963Z,99246.95
2023-02-01T03:03:25.726Z,99248.86
2023-02-01T03:05:55.061Z,99251.73
2023-02-01T03:08:26.045Z,99252.02
2023-02-01T03:11:00.892Z,99248.41
2023-02-01T03:13:38.629Z,99249.48
2023-02-01T03:16:14.376Z,99252.23
2023-02-01T03:18:51.878Z,99255.98
2023-02-01T03:21:25.593Z,99259.25
2023-02-01T03:23:57.779Z,99260.51
2023-02-01T03:26:30.126Z,99263.81
2023-02-01T03:29:06.789Z,99261.10
2023-02-01T03:31:36.926Z,99265.11
2023-02-01T03:34:05.291Z,99265.56
2023-02-01T03:36:40.895Z,99266.53
2023-02-01T03:39:17.100Z,99264.02
2023-02-01T03:41:52.357Z,99263.38
2023-02-01T03:44:25.748Z,99264.07
2023-02-01T03:46:59.851Z,99268.09
2023-02-01T03:49:33.550Z,99271.16
2023-02-01T03:52:06.149Z,99279.73
2023-02-01T03:54:37.327Z,99284.06
2023-02-01T03:57:10.633Z,99280.95
2023-02-01T03:59:42.244Z,99279.21
2023-02-01T04:02:11.512Z,99279.10
2023-02-01T04:04:41.048Z,99276.94
2023-02-01T04:07:12.444Z,99277.84
2023-02-01T04:09:41.690Z,99280.03
2023-02-01T04:12:10.480Z,99277.90
2023-02-01T04:14:39.678Z,99272.54
2023-02-01T04:17:08.877Z,99278.94
2023-02-01T04:19:38.276Z,99278.77
2023-02-01T04:22:07.940Z,99271.50
2023-02-01T04:24:37.246Z,99273.90
2023-02-01T04:27:06.469Z,99272.31
2023-02-01T04:29:35.777Z,99275.64
2023-02-01T04:32:05.900Z,99278.58
2023-02-01T04:34:35.466Z,99282.03
2023-02-01T04:37:04.891Z,99280.42
2023-02-01T04:39:33.838Z,99276.23
2023-02-01T04:42:03.293Z,99270.89
2023-02-01T04:44:32.843Z,99276.14
2023-02-01T04:47:01.843Z,99268.15
2023-02-01T04:49:30.901Z,99268.22
2023-02-01T04:52:00.234Z,99263.98
2023-02-01T04:54:29.505Z,99264.65
2023-02-01T04:56:58.577Z,99265.77
2023-02-01T04:59:29.432Z,99262.67
2023-02-01T05:01:58.364Z,99258.94
2023-02-01T05:04:28.463Z,99262.40
2023-02-01T05:06:57.027Z,99257.75
2023-02-01T05:09:26.106Z,99255.95
2023-02-01T05:12:13.078Z,99256.56
2023-02-01T05:14:41.846Z,99264.00
2023-02-01T05:17:10.848Z,99262.20
2023-02-01T05:19:39.940Z,99269.98
2023-02-01T05:22:08.865Z,99267.02
2023-02-01T05:24:38.099Z,99263.36
2023-02-01T05:27:06.984Z,99263.67
2023-02-01T05:29:36.255Z,99261.84
2023-02-01T05:32:21.182Z,99258.00
2023-02-01T05:34:51.601Z,99254.34
2023-02-01T05:37:21.232Z,99253.42
2023-02-01T05:39:50.176Z,99254.58
2023-02-01T05:42:19.512Z,99251.51
2023-02-01T05:44:48.887Z,99252.48
2023-02-01T05:47:18.276Z,99253.46
2023-02-01T05:49:47.385Z,99253.83
2023-02-01T05:52:19.719Z,99251.61
2023-02-01T05:54:48.790Z,99256.19
2023-02-01T05:57:18.112Z,99250.13
2023-02-01T05:59:48.052Z,99245.40
2023-02-01T06:02:17.595Z,99241.19
2023-02-01T06:04:46.677Z,99247.73
2023-02-01T06:08:04.181Z,99245.45
2023-02-01T06:10:33.336Z,99244.29
2023-02-01T06:13:04.039Z,99247.80
2023-02-01T06:15:33.199Z,99245.98
2023-02-01T06:18:02.391Z,99246.85
2023-02-01T06:20:31.603Z,99250.29
2023-02-01T06:23:00.385Z,99247.08
2023-02-01T06:25:29.735Z,99246.39
2023-02-01T06:28:03.378Z,99250.05
2023-02-01T06:30:32.590Z,99245.34
2023-02-01T06:33:01.504Z,99246.23
2023-02-01T06:35:30.717Z,99247.32
2023-02-01T06:38:00.118Z,99247.14
2023-02-01T06:40:29.244Z,99249.22
2023-02-01T06:42:58.833Z,99247.86
2023-02-01T06:45:27.831Z,99247.56
2023-02-01T06:47:57.046Z,99249.48
2023-02-01T06:50:26.972Z,99253.71
2023-02-01T06:52:56.409Z,99253.66
2023-02-01T06:55:25.425Z,99257.35
2023-02-01T06:57:58.610Z,99255.73
2023-02-01T07:00:27.769Z,99255.84
2023-02-01T07:02:58.665Z,99253.19
2023-02-01T07:05:27.828Z,99249.18
2023-02-01T07:07:57.531Z,99245.95
2023-02-01T07:10:26.631Z,99240.30
2023-02-01T07:12:58.190Z,99238.69
2023-02-01T07:15:27.482Z,99234.31
2023-02-01T07:17:57.730Z,99235.52
2023-02-01T07:20:27.157Z,99232.89
2023-02-01T07:22:57.859Z,99231.99
2023-02-01T07:25:27.084Z,99232.17
2023-02-01T07:27:56.203Z,99230.80
2023-02-01T07:30:26.470Z,99231.52
2023-02-01T07:32:55.760Z,99232.56
2023-02-01T07:35:25.286Z,99231.59
2023-02-01T07:37:54.894Z,99230.16
2023-02-01T07:40:28.979Z,99232.96
2023-02-01T07:42:58.288Z,99234.16
2023-02-01T07:45:27.392Z,99237.15
2023-02-01T07:47:56.845Z,99235.00
2023-02-01T07:50:26.013Z,99238.95
2023-02-01T07:52:55.196Z,99243.52
2023-02-01T07:55:25.279Z,99241.52
2023-02-01T07:57:59.517Z,99239.26
2023-02-01T08:00:46.781Z,99238.61
2023-02-01T08:03:17.431Z,99243.33
2023-02-01T08:05:46.761Z,99247.80
2023-02-01T08:08:16.373Z,99246.52
2023-02-01T08:10:45.553Z,99246.54
2023-02-01T08:13:14.804Z,99249.27
2023-02-01T08:15:44.238Z,99246.75
2023-02-01T08:18:16.658Z,99251.02
2023-02-01T08:20:46.401Z,99251.23
2023-02-01T08:23:15.828Z,99252.77
2023-02-01T08:25:44.958Z,99251.19
2023-02-01T08:28:14.177Z,99252.90
2023-02-01T08:30:43.383Z,99248.84
2023-02-01T08:33:12.631Z,99254.23
2023-02-01T08:35:44.152Z,99249.58
2023-02-01T08:38:13.718Z,99248.98
2023-02-01T08:40:42.859Z,99251.02
2023-02-01T08:43:12.201Z,99249.62
2023-02-01T08:45:44.344Z,99248.48
2023-02-01T08:48:13.759Z,99244.70
2023-02-01T08:50:43.799Z,99243.90
2023-02-01T08:53:14.213Z,99240.60
2023-02-01T08:55:43.554Z,99241.02
2023-02-01T08:58:14.363Z,99237.08
2023-02-01T09:00:45.043Z,99229.41
2023-02-01T09:03:14.065Z,99221.59
2023-02-01T09:05:49.752Z,99220.56
2023-02-01T09:08:19.448Z,99216.30
2023-02-01T09:10:48.640Z,99210.36
2023-02-01T09:13:18.101Z,99208.79
2023-02-01T09:15:47.826Z,99207.63
2023-02-01T09:18:17.359Z,99204.52
2023-02-01T09:20:46.697Z,99196.98
2023-02-01T09:23:18.006Z,99193.25
2023-02-01T09:25:49.834Z,99187.99
2023-02-01T09:28:19.900Z,99187.14
2023-02-01T09:30:49.798Z,99192.45
2023-02-01T09:33:18.941Z,99191.89
2023-02-01T09:35:48.086Z,99190.33
2023-02-01T09:38:17.430Z,99188.41
2023-02-01T09:40:48.897Z,99188.29
2023-02-01T09:43:30.209Z,99186.09
2023-02-01T09:46:14.252Z,99190.65
2023-02-01T09:48:46.729Z,99184.76
2023-02-01T09:51:23.946Z,99188.10
2023-02-01T09:54:04.111Z,99189.67
2023-02-01T09:56:38.146Z,99180.07
2023-02-01T09:59:20.113Z,99184.31
2023-02-01T10:01:49.568Z,99180.50
2023-02-01T10:04:20.973Z,99176.03
2023-02-01T10:07:10.444Z,99180.92
2023-02-01T10:09:59.829Z,99174.80
2023-02-01T10:13:00.545Z,99176.65
2023-02-01T10:15:45.963Z,99172.14
2023-02-01T10:18:40.525Z,99177.73
2023-02-01T10:21:20.381Z,99173.92
2023-02-01T10:24:18.548Z,99170.90
2023-02-01T10:26:56.184Z,99175.05
2023-02-01T10:29:32.069Z,99172.39
2023-02-01T10:32:01.679Z,99172.66
2023-02-01T10:34:36.191Z,99170.42
2023-02-01T10:37:19.841Z,99167.05
2023-02-01T10:39:58.038Z,99159.84
2023-02-01T10:42:38.807Z,99161.98
2023-02-01T10:45:28.528Z,99159.83
2023-02-01T10:48:04.434Z,99149.50
2023-02-01T10:50:40.906Z,99152.55
2023-02-01T10:53:18.356Z,99152.79
2023-02-01T10:55:53.343Z,99144.62
2023-02-01T10:58:28.876Z,99140.89
2023-02-01T11:01:03.618Z,99137.84
2023-02-01T11:03:55.063Z,99136.33
2023-02-01T11:06:41.563Z,99133.32
2023-02-01T11:09:21.503Z,99131.75
2023-02-01T11:12:00.943Z,99131.74
2023-02-01T11:14:38.588Z,99125.32
2023-02-01T11:17:28.672Z,99119.03
2023-02-01T11:20:03.537Z,99115.92
2023-02-01T11:22:33.555Z,99116.12
2023-02-01T11:25:10.726Z,99109.33
2023-02-01T11:27:54.389Z,99109.98
2023-02-01T11:30:34.851Z,99107.52
2023-02-01T11:33:06.964Z,99098.28
2023-02-01T11:35:40.363Z,99100.95
2023-02-01T11:38:22.789Z,99099.05
2023-02-01T11:40:52.643Z,99097.57
2023-02-01T11:43:23.886Z,99101.35
2023-02-01T11:45:58.570Z,99099.20
2023-02-01T11:48:29.486Z,99096.26
2023-02-01T11:51:17.247Z,99096.88
2023-02-01T11:54:08.652Z,99091.21
2023-02-01T11:56:46.273Z,99086.81
2023-02-01T11:59:34.297Z,99083.98
2023-02-01T12:02:37.528Z,99082.95
2023-02-01T12:05:43.274Z,99082.61
2023-02-01T12:08:29.648Z,99086.13
2023-02-01T12:11:19.434Z,99076.13
2023-02-01T12:14:02.972Z,99070.50
2023-02-01T12:16:40.798Z,99064.92
2023-02-01T12:19:26.473Z,99067.70
2023-02-01T12:22:09.110Z,99060.59
2023-02-01T12:24:50.468Z,99061.59
2023-02-01T12:27:49.766Z,99060.21
2023-02-01T12:30:36.227Z,99053.69
2023-02-01T12:33:19.286Z,99051.15
2023-02-01T12:36:00.811Z,99044.83
2023-02-01T12:38:48.357Z,99039.10
2023-02-01T12:41:51.088Z,99031.30
2023-02-01T12:44:32.661Z,99027.55
2023-02-01T12:47:11.186Z,99031.54
2023-02-01T12:49:49.966Z,99025.05
2023-02-01T12:52:25.104Z,99028.71
2023-02-01T12:54:59.476Z,99038.80
2023-02-01T12:57:33.219Z,99044.91
2023-02-01T13:00:17.940Z,99038.95
2023-02-01T13:02:56.447Z,99043.95
2023-02-01T13:05:33.093Z,99053.08
2023-02-01T13:08:08.465Z,99055.91
2023-02-01T13:10:43.314Z,99043.54
2023-02-01T13:13:21.751Z,99034.36
2023-02-01T13:15:58.263Z,99035.55
2023-02-01T13:18:36.090Z,99043.50
2023-02-01T13:21:09.774Z,99050.72
2023-02-01T13:23:42.637Z,99055.00
2023-02-01T13:26:13.462Z,99051.55
2023-02-01T13:28:47.384Z,99041.91
2023-02-01T13:31:43.644Z,99048.27
2023-02-01T13:35:00.192Z,99049.22
2023-02-01T13:37:44.364Z,99052.08
2023-02-01T13:40:27.038Z,99050.51
2023-02-01T13:42:59.927Z,99052.98
2023-02-01T13:45:31.727Z,99042.61
2023-02-01T13:48:04.613Z,99046.39
2023-02-01T13:50:37.973Z,99039.98
2023-02-01T13:53:22.927Z,99037.82
2023-02-01T13:55:59.001Z,99034.39
2023-02-01T13:58:34.730Z,99038.14
2023-02-01T14:01:32.040Z,99042.65
2023-02-01T14:04:05.337Z,99029.98
2023-02-01T14:06:42.789Z,99037.88
2023-02-01T14:09:37.584Z,99038.75
2023-02-01T14:12:47.864Z,99042.38
2023-02-01T14:15:34.802Z,99035.80
2023-02-01T14:18:48.573Z,99036.04
2023-02-01T14:21:26.409Z,99030.34
2023-02-01T14:24:02.384Z,99037.42
2023-02-01T14:26:45.931Z,99043.31
2023-02-01T14:29:32.618Z,99043.77
2023-02-01T14:32:06.929Z,99039.92
2023-02-01T14:34:50.569Z,99043.58
2023-02-01T14:37:32.585Z,99046.52
2023-02-01T14:40:03.870Z,99047.95
2023-02-01T14:42:40.039Z,99046.66
2023-02-01T14:45:55.363Z,99045.73
2023-02-01T14:48:48.667Z,99043.88
2023-02-01T14:51:20.389Z,99046.82
2023-02-01T14:53:50.497Z,99041.05
2023-02-01T14:56:22.408Z,99039.16
2023-02-01T14:58:59.184Z,99045.38
2023-02-01T15:01:32.244Z,99046.45
2023-02-01T15:04:05.866Z,99045.99
2023-02-01T15:06:39.384Z,99048.73
2023-02-01T15:09:13.390Z,99053.02
2023-02-01T15:12:04.372Z,99055.35
2023-02-01T15:14:35.970Z,99056.09
2023-02-01T15:17:18.616Z,99058.79
2023-02-01T15:19:56.249Z,99056.63
2023-02-01T15:22:25.655Z,99054.70
2023-02-01T15:24:57.141Z,99059.73
2023-02-01T15:27:27.777Z,99058.28
2023-02-01T15:30:06.137Z,99056.70
2023-02-01T15:32:39.625Z,99058.16
2023-02-01T15:35:41.099Z,99057.94
2023-02-01T15:38:40.644Z,99056.58
2023-02-01T15:41:16.429Z,99070.05
2023-02-01T15:44:04.296Z,99076.11
2023-02-01T15:46:37.118Z,99081.21
2023-02-01T15:49:17.139Z,99089.77
2023-02-01T15:51:48.081Z,99094.65
2023-02-01T15:54:24.242Z,99092.99
2023-02-01T15:56:56.695Z,99093.11
2023-02-01T15:59:30.617Z,99091.55
2023-02-01T16:02:00.304Z,99087.83
2023-02-01T16:04:30.964Z,99077.68
2023-02-01T16:07:03.787Z,99084.02
2023-02-01T16:09:41.057Z,99088.65
2023-02-01T16:12:30.443Z,99086.55
2023-02-01T16:14:59.594Z,99091.81
2023-02-01T16:17:28.946Z,99093.27
2023-02-01T16:19:58.517Z,99101.09
2023-02-01T16:22:27.729Z,99108.48
2023-02-01T16:24:57.805Z,99108.61
2023-02-01T16:27:27.005Z,99112.91
2023-02-01T16:29:57.608Z,99119.55
2023-02-01T16:32:27.219Z,99120.55
2023-02-01T16:34:58.813Z,99115.17
2023-02-01T16:37:32.507Z,99111.57
2023-02-01T16:40:01.566Z,99109.08
2023-02-01T16:42:31.315Z,99107.17
2023-02-01T16:45:00.423Z,99111.52
2023-02-01T16:47:29.678Z,99118.00
2023-02-01T16:49:58.672Z,99117.84
2023-02-01T16:52:28.837Z,99119.95
2023-02-01T16:54:58.440Z,99121.23
2023-02-01T16:57:30.014Z,99125.00
2023-02-01T17:00:06.563Z,99125.14
2023-02-01T17:02:42.432Z,99130.27
2023-02-01T17:05:11.918Z,99130.36
2023-02-01T17:07:42.265Z,99126.78
2023-02-01T17:10:27.765Z,99126.98
2023-02-01T17:13:01.948Z,99129.06
2023-02-01T17:15:36.138Z,99129.45
2023-02-01T17:18:07.059Z,99118.77
2023-02-01T17:20:38.630Z,99120.94
2023-02-01T17:23:08.956Z,99124.63
2023-02-01T17:25:38.304Z,99123.30
2023-02-01T17:28:08.784Z,99121.66
2023-02-01T17:30:39.607Z,99124.75
2023-02-01T17:33:22.298Z,99125.70
2023-02-01T17:35:52.726Z,99114.23
2023-02-01T17:38:23.324Z,99110.94
2023-02-01T17:40:51.976Z,99105.19
2023-02-01T17:43:23.528Z,99101.09
2023-02-01T17:45:56.369Z,99097.91
2023-02-01T17:48:27.816Z,99093.00
2023-02-01T17:50:58.903Z,99092.33
2023-02-01T17:53:29.481Z,99091.48
2023-02-01T17:55:58.594Z,99091.03
2023-02-01T17:58:29.997Z,99096.26
2023-02-01T18:00:59.401Z,99094.52
2023-02-01T18:03:32.310Z,99092.18
2023-02-01T18:06:02.480Z,99087.91
2023-02-01T18:08:33.553Z,99087.42
2023-02-01T18:11:03.162Z,99081.79
2023-02-01T18:13:33.520Z,99082.87
2023-02-01T18:16:04.066Z,99080.19
2023-02-01T18:18:33.799Z,99078.21
2023-02-01T18:21:03.639Z,99075.05
2023-02-01T18:23:33.086Z,99076.21
2023-02-01T18:26:03.917Z,99070.18
2023-02-01T18:28:33.020Z,99070.90
2023-02-01T18:31:02.958Z,99068.08
2023-02-01T18:33:31.406Z,99066.58
2023-02-01T18:36:00.299Z,99063.60
2023-02-01T18:38:29.352Z,99063.73
2023-02-01T18:41:00.675Z,99063.65
2023-02-01T18:43:30.057Z,99064.22
2023-02-01T18:45:59.685Z,99060.45
2023-02-01T18:48:30.711Z,99054.50
2023-02-01T18:51:00.029Z,99053.16
2023-02-01T18:53:29.724Z,99045.01
2023-02-01T18:55:59.966Z,99044.65
2023-02-01T18:58:29.150Z,99043.33
2023-02-01T19:01:05.979Z,99041.84
2023-02-01T19:03:39.779Z,99038.55
2023-02-01T19:06:12.538Z,99034.55
2023-02-01T19:08:41.657Z,99035.23
2023-02-01T19:11:11.737Z,99036.28
2023-02-01T19:13:41.786Z,99021.76
2023-02-01T19:16:13.419Z,99015.21
2023-02-01T19:18:42.932Z,99000.14
2023-02-01T19:21:13.477Z,98988.91
2023-02-01T19:23:43.975Z,98985.72
2023-02-01T19:26:14.691Z,98977.92
2023-02-01T19:28:47.127Z,98981.35
2023-02-01T19:31:16.980Z,98981.30
2023-02-01T19:33:46.145Z,98982.67
2023-02-01T19:36:15.750Z,98986.63
2023-02-01T19:38:45.202Z,98978.91
2023-02-01T19:41:14.392Z,98972.58
2023-02-01T19:43:44.308Z,98963.38
2023-02-01T19:46:13.533Z,98962.79
2023-02-01T19:48:42.696Z,98963.44
2023-02-01T19:51:12.731Z,98973.45
2023-02-01T19:53:40.899Z,98980.32
2023-02-01T19:56:10.307Z,98993.35
2023-02-01T19:58:39.613Z,99000.41
2023-02-01T20:01:08.155Z,98999.75
2023-02-01T20:03:37.465Z,98983.97
2023-02-01T20:06:07.156Z,98977.67
2023-02-01T20:08:37.653Z,98963.44
2023-02-01T20:11:08.691Z,98956.75
2023-02-01T20:13:38.153Z,98957.73
2023-02-01T20:16:07.863Z,98959.06
2023-02-01T20:18:38.282Z,98955.90
2023-02-01T20:21:07.589Z,98951.95
2023-02-01T20:23:37.201Z,98944.00
2023-02-01T20:26:08.895Z,98936.44
2023-02-01T20:28:38.512Z,98930.08
2023-02-01T20:31:10.304Z,98924.69
2023-02-01T20:33:39.788Z,98923.71
2023-02-01T20:36:10.308Z,98918.29
2023-02-01T20:38:39.611Z,98916.64
2023-02-01T20:41:10.034Z,98911.43
2023-02-01T20:43:39.659Z,98907.98
2023-02-01T20:46:09.152Z,98903.52
2023-02-01T20:48:38.760Z,98896.56
2023-02-01T20:51:09.278Z,98900.07
2023-02-01T20:53:39.327Z,98890.36
2023-02-01T20:56:10.458Z,98886.40
2023-02-01T20:58:39.673Z,98886.58
2023-02-01T21:01:09.682Z,98885.55
2023-02-01T21:03:39.083Z,98878.46
2023-02-01T21:06:10.336Z,98879.45
2023-02-01T21:08:40.824Z,98878.36
2023-02-01T21:11:12.119Z,98872.69
2023-02-01T21:13:50.298Z,98873.38
2023-02-01T21:16:21.190Z,98874.11
2023-02-01T21:18:53.136Z,98869.84
2023-02-01T21:21:22.303Z,98870.16
2023-02-01T21:23:52.583Z,98871.69
2023-02-01T21:26:23.333Z,98871.02
2023-02-01T21:28:54.227Z,98870.48
2023-02-01T21:31:25.220Z,98877.34
2023-02-01T21:33:54.328Z,98877.61
2023-02-01T21:36:23.547Z,98875.40
2023-02-01T21:38:54.613Z,98878.25
2023-02-01T21:41:43.071Z,98881.91
2023-02-01T21:44:14.099Z,98882.23
2023-02-01T21:46:43.777Z,98886.23
2023-02-01T21:49:13.647Z,98892.21
2023-02-01T21:51:43.602Z,98894.08
2023-02-01T21:54:14.147Z,98896.67
2023-02-01T21:56:43.685Z,98901.78
2023-02-01T21:59:13.187Z,98900.42
2023-02-01T22:01:42.349Z,98908.71
2023-02-01T22:04:11.710Z,98908.73
2023-02-01T22:06:45.263Z,98905.16
2023-02-01T22:09:17.700Z,98909.23
2023-02-01T22:11:47.290Z,98913.60
2023-02-01T22:14:16.793Z,98929.64
2023-02-01T22:16:45.929Z,98942.75
2023-02-01T22:19:15.618Z,98938.41
2023-02-01T22:21:46.736Z,98941.05
2023-02-01T22:24:19.638Z,98945.89
2023-02-01T22:26:49.803Z,98937.91
2023-02-01T22:29:19.376Z,98934.23
2023-02-01T22:31:49.738Z,98934.73
2023-02-01T22:34:21.539Z,98939.44
2023-02-01T22:36:50.765Z,98934.58
2023-02-01T22:39:20.068Z,98934.63
2023-02-01T22:41:49.483Z,98934.88
2023-02-01T22:44:19.561Z,98933.72
2023-02-01T22:46:48.763Z,98931.33
2023-02-01T22:49:18.277Z,98935.20
2023-02-01T22:51:48.377Z,98936.67
2023-02-01T22:54:17.741Z,98941.60
2023-02-01T22:56:48.186Z,98941.20
2023-02-01T22:59:17.286Z,98943.63
2023-02-01T23:01:46.493Z,98943.23
2023-02-01T23:04:16.192Z,98941.90
2023-02-01T23:06:46.026Z,98943.02
2023-02-01T23:09:18.067Z,98946.79
2023-02-01T23:11:47.892Z,98949.22
2023-02-01T23:14:17.470Z,98948.04
2023-02-01T23:16:48.041Z,98956.40
2023-02-01T23:19:19.828Z,98957.78
2023-02-01T23:21:49.491Z,98965.55
2023-02-01T23:24:18.885Z,98966.67
2023-02-01T23:26:48.212Z,98970.37
2023-02-01T23:29:18.781Z,98968.75
2023-02-01T23:31:48.560Z,98970.85
2023-02-01T23:34:17.871Z,98971.91
2023-02-01T23:36:47.397Z,98972.61
2023-02-01T23:39:16.534Z,98975.86
2023-02-01T23:41:45.428Z,98975.70
2023-02-01T23:44:14.927Z,98976.13
2023-02-01T23:46:46.515Z,98979.73
2023-02-01T23:49:17.127Z,98976.45
2023-02-01T23:51:51.031Z,98975.55
2023-02-01T23:54:22.105Z,98980.64
2023-02-01T23:56:51.392Z,98980.79
2023-02-01T23:59:22.392Z,98981.60
